createdAt,value
2023-05-16T00:02:07.950Z,9.47
2023-05-16T00:04:56.384Z,8.47
2023-05-16T00:07:33.952Z,8.10
2023-05-16T00:10:12.272Z,7.57
2023-05-16T00:12:43.047Z,8.40
2023-05-16T00:15:16.828Z,7.53
2023-05-16T00:18:04.713Z,8.03
2023-05-16T00:20:34.104Z,8.23
2023-05-16T00:23:10.973Z,8.13
2023-05-16T00:25:54.342Z,7.70
2023-05-16T00:28:29.557Z,7.63
2023-05-16T00:31:13.683Z,7.60
2023-05-16T00:33:43.587Z,7.67
2023-05-16T00:36:11.729Z,7.63
2023-05-16T00:38:41.280Z,9.17
2023-05-16T00:41:09.266Z,10.03
2023-05-16T00:43:40.393Z,11.10
2023-05-16T00:46:11.821Z,10.43
2023-05-16T00:48:43.500Z,9.50
2023-05-16T00:51:15.516Z,11.00
2023-05-16T00:53:54.606Z,9.53
2023-05-16T00:56:36.928Z,10.13
2023-05-16T00:59:17.364Z,8.70
2023-05-16T01:01:52.776Z,7.90
2023-05-16T01:04:51.843Z,7.90
2023-05-16T01:08:28.553Z,6.77
2023-05-16T01:11:05.416Z,6.43
2023-05-16T01:13:42.750Z,7.50
2023-05-16T01:16:20.168Z,7.50
2023-05-16T01:18:54.025Z,7.70
2023-05-16T01:21:32.881Z,7.57
2023-05-16T01:24:49.861Z,7.10
2023-05-16T01:27:26.439Z,7.50
2023-05-16T01:30:05.899Z,7.17
2023-05-16T01:32:37.548Z,6.87
2023-05-16T01:35:06.127Z,6.23
2023-05-16T01:37:37.468Z,6.50
2023-05-16T01:40:09.737Z,6.03
2023-05-16T01:42:41.084Z,5.10
2023-05-16T01:45:12.488Z,4.23
2023-05-16T01:47:41.471Z,4.00
2023-05-16T01:50:11.142Z,4.00
2023-05-16T01:52:42.200Z,4.23
2023-05-16T01:55:11.691Z,4.73
2023-05-16T01:57:40.893Z,4.60
2023-05-16T02:00:09.903Z,5.07
2023-05-16T02:02:37.795Z,5.23
2023-05-16T02:05:07.477Z,5.80
2023-05-16T02:07:35.544Z,5.70
2023-05-16T02:10:03.400Z,5.57
2023-05-16T02:12:31.374Z,5.87
2023-05-16T02:15:00.674Z,5.47
2023-05-16T02:17:29.233Z,5.20
2023-05-16T02:19:57.737Z,4.60
2023-05-16T02:22:26.317Z,6.83
2023-05-16T02:24:54.188Z,5.97
2023-05-16T02:27:22.058Z,7.13
2023-05-16T02:29:50.021Z,7.47
2023-05-16T02:32:19.308Z,3.50
2023-05-16T02:34:47.317Z,4.47
2023-05-16T02:37:15.323Z,5.03
2023-05-16T02:39:43.043Z,5.30
2023-05-16T02:42:10.703Z,5.03
2023-05-16T02:44:38.464Z,4.50
2023-05-16T02:47:06.166Z,6.50
2023-05-16T02:49:36.283Z,7.60
2023-05-16T02:52:04.146Z,9.30
2023-05-16T02:54:31.920Z,7.80
2023-05-16T02:56:59.639Z,9.90
2023-05-16T02:59:27.737Z,4.47
2023-05-16T03:01:55.452Z,8.67
2023-05-16T03:04:23.876Z,9.90
2023-05-16T03:06:52.899Z,8.00
2023-05-16T03:09:20.682Z,6.77
2023-05-16T03:11:48.432Z,7.93
2023-05-16T03:14:16.396Z,13.17
2023-05-16T03:16:49.231Z,8.37
2023-05-16T03:19:17.205Z,12.87
2023-05-16T03:21:45.132Z,9.57
2023-05-16T03:24:14.279Z,8.47
2023-05-16T03:26:42.180Z,10.83
2023-05-16T03:29:10.008Z,6.70
2023-05-16T03:31:37.766Z,5.90
2023-05-16T03:34:05.738Z,11.33
2023-05-16T03:36:33.430Z,8.50
2023-05-16T03:39:01.188Z,9.63
2023-05-16T03:41:30.357Z,10.20
2023-05-16T03:43:58.045Z,10.63
2023-05-16T03:46:25.993Z,13.40
2023-05-16T03:48:53.794Z,9.73
2023-05-16T03:51:21.626Z,10.63
2023-05-16T03:53:49.379Z,14.73
2023-05-16T04:00:07.925Z,12.33
2023-05-16T04:10:58.578Z,15.27
2023-05-16T04:14:20.904Z,14.00
2023-05-16T04:24:44.010Z,7.93
2023-05-16T04:31:05.111Z,13.23
2023-05-16T05:13:29.177Z,12.70
2023-05-16T05:30:54.067Z,12.93
2023-05-16T05:33:22.024Z,14.13
2023-05-16T05:36:14.334Z,7.27
2023-05-16T05:38:43.536Z,12.47
2023-05-16T05:41:11.943Z,10.87
2023-05-16T05:43:39.665Z,12.13
2023-05-16T05:46:08.383Z,9.27
2023-05-16T05:48:36.144Z,16.13
2023-05-16T05:51:06.258Z,10.37
2023-05-16T05:53:33.957Z,14.93
2023-05-16T05:56:03.115Z,14.40
2023-05-16T05:58:45.355Z,8.53
2023-05-16T06:01:13.109Z,11.70
2023-05-16T06:03:41.076Z,7.57
2023-05-16T06:06:10.602Z,7.90
2023-05-16T06:08:38.360Z,10.33
2023-05-16T06:11:07.558Z,9.67
2023-05-16T06:13:35.478Z,11.03
2023-05-16T06:16:03.278Z,11.40
2023-05-16T06:18:31.099Z,9.93
2023-05-16T06:20:59.342Z,5.67
2023-05-16T06:23:27.263Z,8.47
2023-05-16T06:25:55.071Z,7.17
2023-05-16T06:28:25.052Z,8.10
2023-05-16T06:30:52.863Z,12.27
2023-05-16T06:33:20.680Z,8.77
2023-05-16T06:35:49.009Z,10.00
2023-05-16T06:38:16.824Z,8.60
2023-05-16T06:40:44.533Z,5.50
2023-05-16T06:43:13.357Z,5.77
2023-05-16T06:45:42.696Z,7.13
2023-05-16T06:48:11.113Z,10.37
2023-05-16T06:50:38.998Z,8.03
2023-05-16T06:53:07.412Z,9.00
2023-05-16T06:55:35.582Z,4.40
2023-05-16T06:58:03.468Z,6.90
2023-05-16T07:00:31.366Z,6.70
2023-05-16T07:03:00.744Z,7.47
2023-05-16T07:05:28.720Z,7.93
2023-05-16T07:07:56.762Z,7.93
2023-05-16T07:10:24.886Z,7.27
2023-05-16T07:12:52.676Z,7.20
2023-05-16T07:15:20.598Z,5.60
2023-05-16T07:17:48.391Z,4.93
2023-05-16T07:20:20.428Z,3.88
2023-05-16T07:22:57.374Z,5.82
2023-05-16T07:25:25.869Z,4.20
2023-05-16T07:27:54.248Z,4.82
2023-05-16T07:30:22.047Z,5.28
2023-05-16T07:32:52.592Z,3.72
2023-05-16T07:35:22.225Z,8.43
2023-05-16T07:37:49.997Z,6.50
2023-05-16T07:40:25.735Z,6.57
2023-05-16T07:42:53.679Z,3.97
2023-05-16T07:45:39.837Z,8.07
2023-05-16T07:48:08.794Z,5.37
2023-05-16T07:50:38.265Z,9.33
2023-05-16T07:53:06.254Z,4.53
2023-05-16T07:55:34.280Z,6.00
2023-05-16T07:58:02.040Z,6.70
2023-05-16T08:00:30.144Z,4.77
2023-05-16T08:03:01.262Z,5.23
2023-05-16T08:05:29.459Z,4.60
2023-05-16T08:07:58.956Z,4.63
2023-05-16T08:10:27.022Z,5.23
2023-05-16T08:12:55.024Z,5.40
2023-05-16T08:15:23.242Z,6.27
2023-05-16T08:17:51.232Z,2.57
2023-05-16T08:20:19.294Z,4.70
2023-05-16T08:22:47.085Z,5.13
2023-05-16T08:25:16.354Z,4.72
2023-05-16T08:27:45.666Z,3.90
2023-05-16T08:30:14.731Z,3.63
2023-05-16T08:33:21.612Z,2.63
2023-05-16T08:35:50.053Z,4.05
2023-05-16T08:38:17.963Z,2.30
2023-05-16T08:40:47.183Z,2.05
2023-05-16T08:43:37.160Z,3.47
2023-05-16T08:46:05.193Z,4.20
2023-05-16T08:48:35.120Z,3.78
2023-05-16T08:51:03.231Z,4.30
2023-05-16T08:53:33.818Z,2.55
2023-05-16T08:56:03.473Z,4.57
2023-05-16T08:58:31.221Z,4.28
2023-05-16T09:00:59.273Z,5.88
2023-05-16T09:03:28.953Z,4.13
2023-05-16T09:05:57.823Z,3.20
2023-05-16T09:08:26.232Z,3.70
2023-05-16T09:10:54.717Z,4.25
2023-05-16T09:13:25.051Z,3.75
2023-05-16T09:16:11.311Z,2.25
2023-05-16T09:18:39.312Z,3.17
2023-05-16T09:21:07.644Z,2.60
2023-05-16T09:23:37.191Z,6.53
2023-05-16T09:26:08.004Z,4.60
2023-05-16T09:28:59.889Z,3.90
2023-05-16T09:31:31.749Z,3.40
2023-05-16T09:33:59.819Z,3.08
2023-05-16T09:36:27.535Z,4.95
2023-05-16T09:38:55.684Z,4.10
2023-05-16T09:41:23.662Z,3.35
2023-05-16T09:43:52.840Z,1.45
2023-05-16T09:46:20.741Z,4.32
2023-05-16T09:48:49.054Z,1.58
2023-05-16T09:51:16.929Z,3.38
2023-05-16T09:53:52.732Z,3.30
2023-05-16T09:56:21.557Z,2.67
2023-05-16T09:58:49.472Z,1.80
2023-05-16T10:01:18.921Z,2.25
2023-05-16T10:03:53.974Z,1.98
2023-05-16T10:06:22.904Z,2.50
2023-05-16T10:08:51.687Z,1.55
2023-05-16T10:11:19.568Z,2.72
2023-05-16T10:13:50.449Z,2.63
2023-05-16T10:16:19.655Z,3.83
2023-05-16T10:18:47.670Z,1.88
2023-05-16T10:21:16.572Z,1.25
2023-05-16T10:23:51.671Z,1.88
2023-05-16T10:26:19.544Z,3.33
2023-05-16T10:28:47.501Z,7.35
2023-05-16T10:31:15.701Z,1.33
2023-05-16T10:33:46.052Z,3.22
2023-05-16T10:36:15.957Z,2.35
2023-05-16T10:38:43.943Z,1.50
2023-05-16T10:41:12.966Z,2.63
2023-05-16T10:43:43.067Z,2.35
2023-05-16T10:46:12.424Z,2.20
2023-05-16T10:48:41.331Z,2.88
2023-05-16T10:51:41.439Z,3.90
2023-05-16T10:54:15.353Z,1.83
2023-05-16T10:56:43.685Z,2.38
2023-05-16T10:59:28.532Z,2.67
2023-05-16T11:01:56.795Z,4.95
2023-05-16T11:04:35.117Z,3.55
2023-05-16T11:07:04.363Z,4.57
2023-05-16T11:09:32.152Z,3.45
2023-05-16T11:12:01.256Z,2.55
2023-05-16T11:14:32.046Z,2.17
2023-05-16T11:17:03.590Z,2.95
2023-05-16T11:19:35.804Z,3.28
2023-05-16T11:22:09.458Z,2.88
2023-05-16T11:24:38.150Z,3.53
2023-05-16T11:29:47.552Z,1.55
2023-05-16T11:32:15.947Z,2.65
2023-05-16T11:34:46.304Z,8.63
2023-05-16T11:37:16.330Z,3.03
2023-05-16T11:39:44.546Z,3.33
2023-05-16T11:42:13.357Z,1.92
2023-05-16T11:44:41.998Z,2.70
2023-05-16T11:47:10.125Z,2.20
2023-05-16T11:49:38.337Z,1.55
2023-05-16T11:52:06.681Z,1.02
2023-05-16T11:54:36.559Z,2.83
2023-05-16T11:57:04.635Z,2.55
2023-05-16T11:59:32.783Z,4.15
2023-05-16T12:02:05.317Z,2.75
2023-05-16T12:04:33.683Z,1.23
2023-05-16T12:07:02.643Z,3.10
2023-05-16T12:09:31.186Z,1.35
2023-05-16T12:12:00.884Z,6.20
2023-05-16T12:14:28.940Z,2.28
2023-05-16T12:16:57.147Z,3.75
2023-05-16T12:19:25.549Z,2.85
2023-05-16T12:21:54.628Z,1.95
2023-05-16T12:24:23.116Z,2.60
2023-05-16T12:26:51.111Z,2.13
2023-05-16T12:29:20.614Z,6.53
2023-05-16T12:31:51.379Z,2.45
2023-05-16T12:34:21.522Z,1.63
2023-05-16T12:36:53.062Z,1.88
2023-05-16T12:39:21.190Z,1.88
2023-05-16T12:41:49.278Z,0.80
2023-05-16T12:44:19.892Z,0.60
2023-05-16T12:46:52.032Z,1.60
2023-05-16T12:49:21.942Z,1.00
2023-05-16T12:51:51.213Z,0.75
2023-05-16T12:54:19.401Z,1.20
2023-05-16T12:56:47.275Z,0.80
2023-05-16T12:59:15.205Z,2.20
2023-05-16T13:01:44.465Z,1.07
2023-05-16T13:04:16.916Z,2.13
2023-05-16T13:06:58.452Z,1.90
2023-05-16T13:09:32.095Z,1.13
2023-05-16T13:12:00.865Z,1.88
2023-05-16T13:14:28.829Z,4.07
2023-05-16T13:16:56.588Z,1.25
2023-05-16T13:19:26.258Z,1.53
2023-05-16T13:21:54.195Z,0.77
2023-05-16T13:24:22.008Z,1.43
2023-05-16T13:26:49.884Z,1.27
2023-05-16T13:29:17.849Z,2.67
2023-05-16T13:31:45.885Z,4.50
2023-05-16T13:34:13.742Z,1.43
2023-05-16T13:36:53.655Z,1.60
2023-05-16T13:39:23.053Z,2.30
2023-05-16T13:41:51.533Z,1.87
2023-05-16T13:44:19.561Z,1.10
2023-05-16T13:46:47.590Z,3.93
2023-05-16T13:49:15.956Z,3.13
2023-05-16T13:51:45.606Z,1.23
2023-05-16T13:54:13.731Z,1.00
2023-05-16T13:56:42.127Z,1.87
2023-05-16T13:59:12.340Z,1.67
2023-05-16T14:01:43.421Z,0.83
2023-05-16T14:04:11.986Z,2.93
2023-05-16T14:06:40.142Z,1.33
2023-05-16T14:09:09.638Z,3.03
2023-05-16T14:11:37.532Z,1.52
2023-05-16T14:14:06.306Z,1.42
2023-05-16T14:16:34.455Z,1.30
2023-05-16T14:19:03.096Z,2.65
2023-05-16T14:21:31.212Z,1.60
2023-05-16T14:23:59.348Z,1.63
2023-05-16T14:26:31.304Z,1.77
2023-05-16T14:29:01.637Z,3.53
2023-05-16T14:31:36.578Z,1.73
2023-05-16T14:34:04.777Z,2.15
2023-05-16T14:36:33.145Z,2.30
2023-05-16T14:39:04.275Z,5.60
2023-05-16T14:41:33.626Z,2.22
2023-05-16T14:44:01.887Z,1.88
2023-05-16T14:46:29.870Z,2.13
2023-05-16T14:48:57.943Z,2.67
2023-05-16T14:51:25.928Z,4.87
2023-05-16T14:53:53.954Z,2.70
2023-05-16T14:56:22.748Z,2.40
2023-05-16T14:58:52.004Z,3.83
2023-05-16T15:01:20.178Z,2.60
2023-05-16T15:03:55.468Z,1.30
2023-05-16T15:06:24.598Z,2.00
2023-05-16T15:08:52.675Z,3.07
2023-05-16T15:11:21.788Z,4.23
2023-05-16T15:13:51.101Z,3.07
2023-05-16T15:16:19.107Z,2.63
2023-05-16T15:18:47.044Z,4.03
2023-05-16T15:21:14.918Z,3.33
2023-05-16T15:23:43.345Z,3.60
2023-05-16T15:26:11.314Z,3.67
2023-05-16T15:28:39.184Z,1.57
2023-05-16T15:31:08.532Z,2.07
2023-05-16T15:33:36.327Z,3.10
2023-05-16T15:36:04.227Z,5.03
2023-05-16T15:38:32.128Z,1.73
2023-05-16T15:41:15.901Z,4.33
2023-05-16T15:43:47.771Z,3.20
2023-05-16T15:46:16.979Z,3.33
2023-05-16T15:48:45.017Z,4.13
2023-05-16T15:51:13.141Z,2.40
2023-05-16T15:53:41.223Z,3.70
2023-05-16T15:56:09.502Z,1.67
2023-05-16T15:58:37.353Z,3.90
2023-05-16T16:01:05.406Z,1.77
2023-05-16T16:03:34.701Z,4.07
2023-05-16T16:06:02.599Z,1.60
2023-05-16T16:08:30.403Z,2.57
2023-05-16T16:10:58.594Z,5.13
2023-05-16T16:13:26.587Z,2.57
2023-05-16T16:15:54.606Z,4.40
2023-05-16T16:18:22.473Z,1.80
2023-05-16T16:20:53.001Z,2.80
2023-05-16T16:23:21.744Z,4.07
2023-05-16T16:25:50.326Z,3.37
2023-05-16T16:28:18.827Z,3.77
2023-05-16T16:30:50.289Z,5.70
2023-05-16T16:33:18.389Z,4.13
2023-05-16T16:35:46.735Z,4.60
2023-05-16T16:38:16.574Z,3.60
2023-05-16T16:40:44.979Z,2.33
2023-05-16T16:43:13.059Z,4.47
2023-05-16T16:45:41.273Z,3.43
2023-05-16T16:48:10.867Z,5.17
2023-05-16T16:50:39.238Z,4.50
2023-05-16T16:53:07.773Z,4.87
2023-05-16T16:55:45.067Z,7.43
2023-05-16T16:58:13.075Z,2.40
2023-05-16T17:01:30.343Z,2.93
2023-05-16T17:04:06.362Z,3.63
2023-05-16T17:06:36.161Z,2.33
2023-05-16T17:09:07.528Z,4.93
2023-05-16T17:11:40.982Z,6.80
2023-05-16T17:14:10.932Z,9.63
2023-05-16T17:16:41.116Z,4.60
2023-05-16T17:19:24.767Z,2.03
2023-05-16T17:22:10.679Z,4.27
2023-05-16T17:24:42.441Z,6.90
2023-05-16T17:27:47.098Z,2.47
2023-05-16T17:32:57.737Z,4.80
2023-05-16T17:35:25.951Z,6.97
2023-05-16T17:37:55.362Z,14.73
2023-05-16T17:40:23.547Z,10.77
2023-05-16T17:42:52.893Z,8.23
2023-05-16T17:45:39.310Z,5.17
2023-05-16T17:48:08.018Z,4.17
2023-05-16T17:50:37.378Z,3.63
2023-05-16T17:53:13.082Z,4.23
2023-05-16T17:55:41.481Z,7.43
2023-05-16T17:58:10.905Z,3.07
2023-05-16T18:00:56.620Z,4.63
2023-05-16T18:03:25.006Z,3.10
2023-05-16T18:05:53.086Z,4.03
2023-05-16T18:08:56.138Z,5.17
2023-05-16T18:12:03.521Z,4.43
2023-05-16T18:14:55.506Z,4.43
2023-05-16T18:17:23.477Z,3.07
2023-05-16T18:19:55.255Z,3.60
2023-05-16T18:22:44.216Z,4.83
2023-05-16T18:25:12.462Z,2.20
2023-05-16T18:27:40.656Z,5.33
2023-05-16T18:30:13.306Z,4.27
2023-05-16T18:32:43.393Z,2.83
2023-05-16T18:35:13.141Z,5.47
2023-05-16T18:37:44.078Z,3.10
2023-05-16T18:40:13.920Z,4.23
2023-05-16T18:42:42.925Z,3.77
2023-05-16T18:45:13.040Z,6.30
2023-05-16T18:47:41.416Z,2.53
2023-05-16T18:50:15.711Z,3.23
2023-05-16T18:53:05.108Z,4.07
2023-05-16T18:55:33.838Z,3.73
2023-05-16T18:58:02.559Z,4.33
2023-05-16T19:00:32.064Z,2.93
2023-05-16T19:03:02.590Z,4.33
2023-05-16T19:05:34.211Z,3.63
2023-05-16T19:08:03.520Z,3.20
2023-05-16T19:10:32.141Z,5.43
2023-05-16T19:13:07.184Z,5.20
2023-05-16T19:15:36.785Z,3.17
2023-05-16T19:18:05.037Z,4.47
2023-05-16T19:20:33.966Z,3.13
2023-05-16T19:23:02.482Z,2.87
2023-05-16T19:25:30.378Z,2.53
2023-05-16T19:27:58.517Z,3.20
2023-05-16T19:30:26.483Z,4.00
2023-05-16T19:32:56.078Z,4.30
2023-05-16T19:35:23.957Z,4.33
2023-05-16T19:37:51.853Z,3.00
2023-05-16T19:40:20.071Z,5.97
2023-05-16T19:46:36.158Z,6.50
2023-05-16T19:49:05.560Z,4.57
2023-05-16T19:51:41.216Z,4.40
2023-05-16T19:54:10.710Z,4.23
2023-05-16T19:56:38.576Z,2.13
2023-05-16T19:59:06.541Z,6.40
2023-05-16T20:01:34.649Z,3.67
2023-05-16T20:04:02.636Z,4.50
2023-05-16T20:06:34.478Z,4.30
2023-05-16T20:09:20.675Z,4.90
2023-05-16T20:11:50.811Z,4.03
2023-05-16T20:14:20.425Z,4.17
2023-05-16T20:16:48.464Z,4.03
2023-05-16T20:19:18.937Z,4.63
2023-05-16T20:21:48.578Z,4.00
2023-05-16T20:24:20.661Z,4.30
2023-05-16T20:26:48.573Z,2.83
2023-05-16T20:29:16.648Z,6.13
2023-05-16T20:31:47.664Z,7.03
2023-05-16T20:34:15.787Z,3.00
2023-05-16T20:36:45.967Z,3.73
2023-05-16T20:39:15.489Z,5.00
2023-05-16T20:41:43.562Z,2.73
2023-05-16T20:44:11.586Z,4.20
2023-05-16T20:47:05.354Z,3.77
2023-05-16T20:49:33.247Z,5.83
2023-05-16T20:52:04.803Z,3.27
2023-05-16T20:54:45.366Z,3.37
2023-05-16T20:57:13.691Z,3.47
2023-05-16T20:59:48.816Z,2.47
2023-05-16T21:02:19.971Z,5.87
2023-05-16T21:04:57.442Z,3.67
2023-05-16T21:07:27.813Z,4.37
2023-05-16T21:10:00.598Z,3.63
2023-05-16T21:12:40.794Z,2.40
2023-05-16T21:15:10.297Z,6.47
2023-05-16T21:17:39.502Z,4.97
2023-05-16T21:20:09.555Z,4.77
2023-05-16T21:22:39.586Z,4.17
2023-05-16T21:25:12.482Z,4.90
2023-05-16T21:27:40.356Z,3.03
2023-05-16T21:30:09.431Z,3.07
2023-05-16T21:32:37.307Z,4.87
2023-05-16T21:35:06.829Z,4.23
2023-05-16T21:37:34.798Z,4.03
2023-05-16T21:40:02.732Z,2.00
2023-05-16T21:42:33.126Z,3.47
2023-05-16T21:45:02.262Z,3.17
2023-05-16T21:47:30.195Z,3.63
2023-05-16T21:49:58.198Z,2.47
2023-05-16T21:52:26.084Z,3.27
2023-05-16T21:54:54.549Z,3.00
2023-05-16T21:57:22.321Z,4.93
2023-05-16T21:59:51.936Z,3.10
2023-05-16T22:02:23.746Z,1.67
2023-05-16T22:04:53.242Z,4.53
2023-05-16T22:07:21.179Z,2.53
2023-05-16T22:09:53.556Z,4.20
2023-05-16T22:12:23.888Z,3.97
2023-05-16T22:14:53.336Z,5.40
2023-05-16T22:17:21.160Z,4.57
2023-05-16T22:19:50.399Z,4.53
2023-05-16T22:22:18.225Z,4.37
2023-05-16T22:24:48.424Z,5.97
2023-05-16T22:27:16.412Z,5.47
2023-05-16T22:29:44.392Z,4.37
2023-05-16T22:32:14.920Z,4.73
2023-05-16T22:34:42.927Z,2.77
2023-05-16T22:37:10.904Z,5.70
2023-05-16T22:39:38.660Z,3.27
2023-05-16T22:42:07.274Z,2.50
2023-05-16T22:44:35.381Z,2.70
2023-05-16T22:47:03.571Z,3.30
2023-05-16T22:49:32.943Z,3.40
2023-05-16T22:52:00.754Z,2.53
2023-05-16T22:54:30.217Z,5.43
2023-05-16T22:56:58.396Z,2.40
2023-05-16T22:59:26.338Z,3.90
2023-05-16T23:01:54.146Z,5.17
2023-05-16T23:04:23.688Z,3.43
2023-05-16T23:06:52.936Z,3.50
2023-05-16T23:09:21.303Z,3.03
2023-05-16T23:11:49.249Z,4.90
2023-05-16T23:14:17.414Z,3.83
2023-05-16T23:16:45.225Z,4.43
2023-05-16T23:19:13.194Z,3.10
2023-05-16T23:21:41.126Z,3.50
2023-05-16T23:24:10.841Z,2.67
2023-05-16T23:26:38.725Z,1.80
2023-05-16T23:29:07.041Z,3.70
2023-05-16T23:31:34.916Z,3.00
2023-05-16T23:34:05.885Z,3.63
2023-05-16T23:36:33.782Z,2.50
2023-05-16T23:39:01.687Z,3.63
2023-05-16T23:44:43.433Z,4.30
2023-05-16T23:58:28.733Z,4.17
